sensor_id;sensor_type;location;lat;lon;timestamp;P1;durP1;ratioP1;P2;durP2;ratioP2
3653;SDS011;70277;54.302;10.064;2023-12-04T00:01:50;33.83;;;13.82;;
3653;SDS011;70277;54.302;10.064;2023-12-04T00:04:17;30.48;;;13.63;;
3653;SDS011;70277;54.302;10.064;2023-12-04T00:06:43;33.28;;;14.35;;
3653;SDS011;70277;54.302;10.064;2023-12-04T00:09:10;34.95;;;15.15;;
3653;SDS011;70277;54.302;10.064;2023-12-04T00:11:37;28.30;;;14.25;;
3653;SDS011;70277;54.302;10.064;2023-12-04T00:14:03;30.35;;;14.35;;
3653;SDS011;70277;54.302;10.064;2023-12-04T00:16:33;31.80;;;14.43;;
3653;SDS011;70277;54.302;10.064;2023-12-04T00:19:00;34.53;;;15.35;;
3653;SDS011;70277;54.302;10.064;2023-12-04T00:21:27;34.60;;;15.30;;
3653;SDS011;70277;54.302;10.064;2023-12-04T00:23:54;36.33;;;15.60;;
3653;SDS011;70277;54.302;10.064;2023-12-04T00:26:20;31.23;;;13.25;;
3653;SDS011;70277;54.302;10.064;2023-12-04T00:28:47;28.60;;;13.23;;
3653;SDS011;70277;54.302;10.064;2023-12-04T00:31:13;26.15;;;12.98;;
3653;SDS011;70277;54.302;10.064;2023-12-04T00:33:40;27.80;;;12.88;;
3653;SDS011;70277;54.302;10.064;2023-12-04T00:36:06;25.73;;;12.13;;
3653;SDS011;70277;54.302;10.064;2023-12-04T00:38:33;33.65;;;14.57;;
3653;SDS011;70277;54.302;10.064;2023-12-04T00:41:00;28.45;;;13.90;;
3653;SDS011;70277;54.302;10.064;2023-12-04T00:43:27;25.92;;;13.00;;
3653;SDS011;70277;54.302;10.064;2023-12-04T00:45:53;32.05;;;14.43;;
3653;SDS011;70277;54.302;10.064;2023-12-04T00:48:20;30.08;;;14.27;;
3653;SDS011;70277;54.302;10.064;2023-12-04T00:50:47;31.55;;;15.13;;
3653;SDS011;70277;54.302;10.064;2023-12-04T00:53:13;31.85;;;14.93;;
3653;SDS011;70277;54.302;10.064;2023-12-04T00:55:40;28.45;;;14.55;;
3653;SDS011;70277;54.302;10.064;2023-12-04T00:58:06;32.03;;;14.68;;
3653;SDS011;70277;54.302;10.064;2023-12-04T01:00:33;28.92;;;12.98;;
3653;SDS011;70277;54.302;10.064;2023-12-04T01:03:00;30.05;;;13.90;;
3653;SDS011;70277;54.302;10.064;2023-12-04T01:05:26;28.95;;;13.15;;
3653;SDS011;70277;54.302;10.064;2023-12-04T01:07:53;30.48;;;13.70;;
3653;SDS011;70277;54.302;10.064;2023-12-04T01:10:19;30.75;;;13.73;;
3653;SDS011;70277;54.302;10.064;2023-12-04T01:12:46;29.30;;;14.07;;
3653;SDS011;70277;54.302;10.064;2023-12-04T01:15:12;31.60;;;12.80;;
3653;SDS011;70277;54.302;10.064;2023-12-04T01:17:39;28.77;;;13.07;;
3653;SDS011;70277;54.302;10.064;2023-12-04T01:20:06;23.65;;;11.80;;
3653;SDS011;70277;54.302;10.064;2023-12-04T01:22:33;22.42;;;11.75;;
3653;SDS011;70277;54.302;10.064;2023-12-04T01:24:59;25.50;;;11.40;;
3653;SDS011;70277;54.302;10.064;2023-12-04T01:27:26;30.23;;;12.38;;
3653;SDS011;70277;54.302;10.064;2023-12-04T01:29:52;24.23;;;11.38;;
3653;SDS011;70277;54.302;10.064;2023-12-04T01:32:19;28.73;;;11.68;;
3653;SDS011;70277;54.302;10.064;2023-12-04T01:34:45;27.65;;;11.50;;
3653;SDS011;70277;54.302;10.064;2023-12-04T01:37:12;29.67;;;12.95;;
3653;SDS011;70277;54.302;10.064;2023-12-04T01:39:38;30.95;;;14.52;;
3653;SDS011;70277;54.302;10.064;2023-12-04T01:42:05;29.65;;;12.15;;
3653;SDS011;70277;54.302;10.064;2023-12-04T01:44:31;29.17;;;13.38;;
3653;SDS011;70277;54.302;10.064;2023-12-04T01:46:58;32.40;;;13.70;;
3653;SDS011;70277;54.302;10.064;2023-12-04T01:49:24;28.55;;;12.15;;
3653;SDS011;70277;54.302;10.064;2023-12-04T01:51:52;29.20;;;12.35;;
3653;SDS011;70277;54.302;10.064;2023-12-04T01:54:19;31.80;;;13.27;;
3653;SDS011;70277;54.302;10.064;2023-12-04T01:56:46;29.58;;;13.48;;
3653;SDS011;70277;54.302;10.064;2023-12-04T01:59:13;27.30;;;11.70;;
3653;SDS011;70277;54.302;10.064;2023-12-04T02:01:40;33.72;;;13.02;;
3653;SDS011;70277;54.302;10.064;2023-12-04T02:04:06;31.13;;;12.80;;
3653;SDS011;70277;54.302;10.064;2023-12-04T02:06:34;30.55;;;13.38;;
3653;SDS011;70277;54.302;10.064;2023-12-04T02:09:01;34.50;;;12.63;;
3653;SDS011;70277;54.302;10.064;2023-12-04T02:11:28;31.63;;;14.07;;
3653;SDS011;70277;54.302;10.064;2023-12-04T02:13:55;38.28;;;12.63;;
3653;SDS011;70277;54.302;10.064;2023-12-04T02:16:21;29.98;;;12.30;;
3653;SDS011;70277;54.302;10.064;2023-12-04T02:18:52;28.63;;;11.80;;
3653;SDS011;70277;54.302;10.064;2023-12-04T02:21:19;30.25;;;12.70;;
3653;SDS011;70277;54.302;10.064;2023-12-04T02:23:49;27.85;;;12.15;;
3653;SDS011;70277;54.302;10.064;2023-12-04T02:26:17;30.13;;;12.02;;
3653;SDS011;70277;54.302;10.064;2023-12-04T02:28:50;26.83;;;11.57;;
3653;SDS011;70277;54.302;10.064;2023-12-04T02:31:20;29.40;;;12.65;;
3653;SDS011;70277;54.302;10.064;2023-12-04T02:33:52;31.23;;;12.52;;
3653;SDS011;70277;54.302;10.064;2023-12-04T02:36:22;37.35;;;12.43;;
3653;SDS011;70277;54.302;10.064;2023-12-04T02:38:50;27.55;;;11.43;;
3653;SDS011;70277;54.302;10.064;2023-12-04T02:41:19;27.60;;;12.05;;
3653;SDS011;70277;54.302;10.064;2023-12-04T02:43:45;28.02;;;13.30;;
3653;SDS011;70277;54.302;10.064;2023-12-04T02:46:12;30.35;;;11.52;;
3653;SDS011;70277;54.302;10.064;2023-12-04T02:48:38;31.95;;;12.80;;
3653;SDS011;70277;54.302;10.064;2023-12-04T02:51:05;27.38;;;12.15;;
3653;SDS011;70277;54.302;10.064;2023-12-04T02:53:32;29.23;;;11.82;;
3653;SDS011;70277;54.302;10.064;2023-12-04T02:55:59;37.10;;;13.13;;
3653;SDS011;70277;54.302;10.064;2023-12-04T02:58:25;28.98;;;12.27;;
3653;SDS011;70277;54.302;10.064;2023-12-04T03:00:51;28.98;;;11.93;;
3653;SDS011;70277;54.302;10.064;2023-12-04T03:03:18;30.90;;;12.73;;
3653;SDS011;70277;54.302;10.064;2023-12-04T03:05:45;31.70;;;12.35;;
3653;SDS011;70277;54.302;10.064;2023-12-04T03:08:11;31.17;;;12.18;;
3653;SDS011;70277;54.302;10.064;2023-12-04T03:10:38;27.45;;;11.18;;
3653;SDS011;70277;54.302;10.064;2023-12-04T03:13:04;26.15;;;11.23;;
3653;SDS011;70277;54.302;10.064;2023-12-04T03:15:31;32.50;;;12.43;;
3653;SDS011;70277;54.302;10.064;2023-12-04T03:18:21;30.10;;;12.48;;
3653;SDS011;70277;54.302;10.064;2023-12-04T03:20:49;28.95;;;11.73;;
3653;SDS011;70277;54.302;10.064;2023-12-04T03:23:16;30.80;;;11.77;;
3653;SDS011;70277;54.302;10.064;2023-12-04T03:25:42;27.33;;;11.18;;
3653;SDS011;70277;54.302;10.064;2023-12-04T03:28:09;25.30;;;10.60;;
3653;SDS011;70277;54.302;10.064;2023-12-04T03:30:35;31.98;;;12.40;;
3653;SDS011;70277;54.302;10.064;2023-12-04T03:33:02;28.13;;;11.90;;
3653;SDS011;70277;54.302;10.064;2023-12-04T03:35:28;25.40;;;10.85;;
3653;SDS011;70277;54.302;10.064;2023-12-04T03:37:55;31.70;;;11.27;;
3653;SDS011;70277;54.302;10.064;2023-12-04T03:40:21;29.83;;;12.63;;
3653;SDS011;70277;54.302;10.064;2023-12-04T03:42:48;27.30;;;12.15;;
3653;SDS011;70277;54.302;10.064;2023-12-04T03:45:14;36.67;;;11.65;;
3653;SDS011;70277;54.302;10.064;2023-12-04T03:47:41;26.88;;;12.13;;
3653;SDS011;70277;54.302;10.064;2023-12-04T03:50:08;29.70;;;12.07;;
3653;SDS011;70277;54.302;10.064;2023-12-04T03:52:34;30.83;;;11.77;;
3653;SDS011;70277;54.302;10.064;2023-12-04T03:55:01;29.08;;;11.25;;
3653;SDS011;70277;54.302;10.064;2023-12-04T03:57:27;27.42;;;12.60;;
3653;SDS011;70277;54.302;10.064;2023-12-04T03:59:54;29.42;;;11.60;;
3653;SDS011;70277;54.302;10.064;2023-12-04T04:02:20;30.17;;;12.18;;
3653;SDS011;70277;54.302;10.064;2023-12-04T04:04:47;29.00;;;11.63;;
3653;SDS011;70277;54.302;10.064;2023-12-04T04:07:15;25.30;;;11.50;;
3653;SDS011;70277;54.302;10.064;2023-12-04T04:09:42;28.33;;;11.25;;
3653;SDS011;70277;54.302;10.064;2023-12-04T04:12:09;28.20;;;11.10;;
3653;SDS011;70277;54.302;10.064;2023-12-04T04:14:36;30.48;;;10.77;;
3653;SDS011;70277;54.302;10.064;2023-12-04T04:17:03;31.13;;;11.18;;
3653;SDS011;70277;54.302;10.064;2023-12-04T04:19:30;27.38;;;10.88;;
3653;SDS011;70277;54.302;10.064;2023-12-04T04:21:56;33.40;;;11.13;;
3653;SDS011;70277;54.302;10.064;2023-12-04T04:24:23;28.42;;;11.07;;
3653;SDS011;70277;54.302;10.064;2023-12-04T04:26:50;34.85;;;12.05;;
3653;SDS011;70277;54.302;10.064;2023-12-04T04:29:17;29.70;;;10.57;;
3653;SDS011;70277;54.302;10.064;2023-12-04T04:31:43;25.42;;;11.35;;
3653;SDS011;70277;54.302;10.064;2023-12-04T04:34:10;31.88;;;11.63;;
3653;SDS011;70277;54.302;10.064;2023-12-04T04:36:36;30.13;;;11.43;;
3653;SDS011;70277;54.302;10.064;2023-12-04T04:39:03;30.85;;;11.05;;
3653;SDS011;70277;54.302;10.064;2023-12-04T04:41:29;27.55;;;11.10;;
3653;SDS011;70277;54.302;10.064;2023-12-04T04:43:56;27.30;;;10.93;;
3653;SDS011;70277;54.302;10.064;2023-12-04T04:46:22;24.00;;;11.52;;
3653;SDS011;70277;54.302;10.064;2023-12-04T04:48:51;28.27;;;11.32;;
3653;SDS011;70277;54.302;10.064;2023-12-04T04:51:18;36.00;;;11.52;;
3653;SDS011;70277;54.302;10.064;2023-12-04T04:53:44;28.60;;;10.48;;
3653;SDS011;70277;54.302;10.064;2023-12-04T04:56:11;27.17;;;11.35;;
3653;SDS011;70277;54.302;10.064;2023-12-04T04:58:38;25.90;;;11.65;;
3653;SDS011;70277;54.302;10.064;2023-12-04T05:01:05;22.88;;;11.30;;
3653;SDS011;70277;54.302;10.064;2023-12-04T05:03:32;23.30;;;10.65;;
3653;SDS011;70277;54.302;10.064;2023-12-04T05:05:58;29.02;;;10.68;;
3653;SDS011;70277;54.302;10.064;2023-12-04T05:08:25;26.10;;;10.20;;
3653;SDS011;70277;54.302;10.064;2023-12-04T05:10:52;28.45;;;10.95;;
3653;SDS011;70277;54.302;10.064;2023-12-04T05:13:18;24.08;;;10.70;;
3653;SDS011;70277;54.302;10.064;2023-12-04T05:15:45;25.30;;;10.10;;
3653;SDS011;70277;54.302;10.064;2023-12-04T05:18:11;26.90;;;11.48;;
3653;SDS011;70277;54.302;10.064;2023-12-04T05:20:38;23.77;;;10.55;;
3653;SDS011;70277;54.302;10.064;2023-12-04T05:23:04;27.15;;;11.65;;
3653;SDS011;70277;54.302;10.064;2023-12-04T05:25:31;31.63;;;10.98;;
3653;SDS011;70277;54.302;10.064;2023-12-04T05:28:06;26.15;;;10.88;;
3653;SDS011;70277;54.302;10.064;2023-12-04T05:30:33;25.00;;;9.98;;
3653;SDS011;70277;54.302;10.064;2023-12-04T05:32:59;27.48;;;10.27;;
3653;SDS011;70277;54.302;10.064;2023-12-04T05:35:26;28.10;;;10.15;;
3653;SDS011;70277;54.302;10.064;2023-12-04T05:37:52;26.08;;;10.43;;
3653;SDS011;70277;54.302;10.064;2023-12-04T05:40:19;25.17;;;10.32;;
3653;SDS011;70277;54.302;10.064;2023-12-04T05:42:45;31.05;;;11.57;;
3653;SDS011;70277;54.302;10.064;2023-12-04T05:45:12;21.13;;;10.15;;
3653;SDS011;70277;54.302;10.064;2023-12-04T05:47:39;25.48;;;10.68;;
3653;SDS011;70277;54.302;10.064;2023-12-04T05:50:05;25.63;;;9.95;;
3653;SDS011;70277;54.302;10.064;2023-12-04T05:52:33;26.60;;;10.63;;
3653;SDS011;70277;54.302;10.064;2023-12-04T05:54:59;18.15;;;9.38;;
3653;SDS011;70277;54.302;10.064;2023-12-04T05:57:26;24.25;;;10.30;;
3653;SDS011;70277;54.302;10.064;2023-12-04T05:59:52;25.02;;;9.68;;
3653;SDS011;70277;54.302;10.064;2023-12-04T06:02:19;25.10;;;9.15;;
3653;SDS011;70277;54.302;10.064;2023-12-04T06:04:46;24.90;;;9.65;;
3653;SDS011;70277;54.302;10.064;2023-12-04T06:07:12;25.58;;;9.52;;
3653;SDS011;70277;54.302;10.064;2023-12-04T06:09:39;21.30;;;9.40;;
3653;SDS011;70277;54.302;10.064;2023-12-04T06:12:05;23.20;;;9.73;;
3653;SDS011;70277;54.302;10.064;2023-12-04T06:14:35;21.20;;;8.80;;
3653;SDS011;70277;54.302;10.064;2023-12-04T06:17:01;21.38;;;9.57;;
3653;SDS011;70277;54.302;10.064;2023-12-04T06:19:28;22.35;;;9.05;;
3653;SDS011;70277;54.302;10.064;2023-12-04T06:21:55;23.33;;;9.13;;
3653;SDS011;70277;54.302;10.064;2023-12-04T06:24:22;20.02;;;9.10;;
3653;SDS011;70277;54.302;10.064;2023-12-04T06:26:49;28.33;;;9.43;;
3653;SDS011;70277;54.302;10.064;2023-12-04T06:29:17;20.33;;;9.50;;
3653;SDS011;70277;54.302;10.064;2023-12-04T06:31:45;19.40;;;9.57;;
3653;SDS011;70277;54.302;10.064;2023-12-04T06:34:12;24.27;;;10.07;;
3653;SDS011;70277;54.302;10.064;2023-12-04T06:36:39;25.77;;;10.40;;
3653;SDS011;70277;54.302;10.064;2023-12-04T06:39:09;23.15;;;8.88;;
3653;SDS011;70277;54.302;10.064;2023-12-04T06:41:41;25.55;;;9.73;;
3653;SDS011;70277;54.302;10.064;2023-12-04T06:44:09;20.52;;;8.63;;
3653;SDS011;70277;54.302;10.064;2023-12-04T06:46:37;26.42;;;9.63;;
3653;SDS011;70277;54.302;10.064;2023-12-04T06:49:04;21.05;;;8.93;;
3653;SDS011;70277;54.302;10.064;2023-12-04T06:51:35;23.05;;;9.30;;
3653;SDS011;70277;54.302;10.064;2023-12-04T06:54:01;18.95;;;8.88;;
3653;SDS011;70277;54.302;10.064;2023-12-04T06:56:28;19.88;;;8.88;;
3653;SDS011;70277;54.302;10.064;2023-12-04T06:58:55;19.23;;;9.20;;
3653;SDS011;70277;54.302;10.064;2023-12-04T07:01:22;18.00;;;9.30;;
3653;SDS011;70277;54.302;10.064;2023-12-04T07:03:48;22.70;;;9.38;;
3653;SDS011;70277;54.302;10.064;2023-12-04T07:06:15;24.65;;;10.30;;
3653;SDS011;70277;54.302;10.064;2023-12-04T07:08:42;23.95;;;9.13;;
3653;SDS011;70277;54.302;10.064;2023-12-04T07:11:08;23.33;;;9.05;;
3653;SDS011;70277;54.302;10.064;2023-12-04T07:13:35;23.58;;;10.00;;
3653;SDS011;70277;54.302;10.064;2023-12-04T07:16:02;20.70;;;8.60;;
3653;SDS011;70277;54.302;10.064;2023-12-04T07:18:29;26.17;;;9.55;;
3653;SDS011;70277;54.302;10.064;2023-12-04T07:20:55;25.55;;;9.50;;
3653;SDS011;70277;54.302;10.064;2023-12-04T07:23:22;18.67;;;8.98;;
3653;SDS011;70277;54.302;10.064;2023-12-04T07:25:53;27.35;;;10.70;;
3653;SDS011;70277;54.302;10.064;2023-12-04T07:28:19;23.15;;;10.00;;
3653;SDS011;70277;54.302;10.064;2023-12-04T07:30:46;20.67;;;9.68;;
3653;SDS011;70277;54.302;10.064;2023-12-04T07:33:13;20.95;;;9.43;;
3653;SDS011;70277;54.302;10.064;2023-12-04T07:35:39;27.30;;;9.82;;
3653;SDS011;70277;54.302;10.064;2023-12-04T07:38:06;25.02;;;10.55;;
3653;SDS011;70277;54.302;10.064;2023-12-04T07:40:32;22.17;;;9.40;;
3653;SDS011;70277;54.302;10.064;2023-12-04T07:42:59;21.15;;;9.73;;
3653;SDS011;70277;54.302;10.064;2023-12-04T07:45:26;24.05;;;10.38;;
3653;SDS011;70277;54.302;10.064;2023-12-04T07:47:53;23.42;;;10.27;;
3653;SDS011;70277;54.302;10.064;2023-12-04T07:50:20;22.42;;;8.80;;
3653;SDS011;70277;54.302;10.064;2023-12-04T07:52:46;25.27;;;10.45;;
3653;SDS011;70277;54.302;10.064;2023-12-04T07:55:13;23.65;;;9.68;;
3653;SDS011;70277;54.302;10.064;2023-12-04T07:57:39;27.92;;;10.32;;
3653;SDS011;70277;54.302;10.064;2023-12-04T08:00:06;25.30;;;10.02;;
3653;SDS011;70277;54.302;10.064;2023-12-04T08:02:33;27.90;;;10.27;;
3653;SDS011;70277;54.302;10.064;2023-12-04T08:04:59;24.35;;;10.10;;
3653;SDS011;70277;54.302;10.064;2023-12-04T08:07:26;21.52;;;9.68;;
3653;SDS011;70277;54.302;10.064;2023-12-04T08:09:52;25.70;;;9.32;;
3653;SDS011;70277;54.302;10.064;2023-12-04T08:12:20;26.98;;;11.20;;
3653;SDS011;70277;54.302;10.064;2023-12-04T08:14:46;26.20;;;11.50;;
3653;SDS011;70277;54.302;10.064;2023-12-04T08:17:13;29.90;;;11.30;;
3653;SDS011;70277;54.302;10.064;2023-12-04T08:19:40;23.05;;;9.65;;
3653;SDS011;70277;54.302;10.064;2023-12-04T08:22:08;29.13;;;11.38;;
3653;SDS011;70277;54.302;10.064;2023-12-04T08:24:34;26.30;;;10.55;;
3653;SDS011;70277;54.302;10.064;2023-12-04T08:27:02;27.13;;;11.32;;
3653;SDS011;70277;54.302;10.064;2023-12-04T08:29:29;22.33;;;10.32;;
3653;SDS011;70277;54.302;10.064;2023-12-04T08:31:55;27.67;;;10.70;;
3653;SDS011;70277;54.302;10.064;2023-12-04T08:34:22;27.40;;;10.25;;
3653;SDS011;70277;54.302;10.064;2023-12-04T08:36:48;27.90;;;11.25;;
3653;SDS011;70277;54.302;10.064;2023-12-04T08:39:15;26.58;;;10.48;;
3653;SDS011;70277;54.302;10.064;2023-12-04T08:41:44;25.15;;;10.60;;
3653;SDS011;70277;54.302;10.064;2023-12-04T08:44:26;26.13;;;10.32;;
3653;SDS011;70277;54.302;10.064;2023-12-04T08:46:53;27.25;;;10.25;;
3653;SDS011;70277;54.302;10.064;2023-12-04T08:49:20;21.17;;;8.93;;
3653;SDS011;70277;54.302;10.064;2023-12-04T08:51:46;24.58;;;10.15;;
3653;SDS011;70277;54.302;10.064;2023-12-04T08:54:13;23.63;;;9.52;;
3653;SDS011;70277;54.302;10.064;2023-12-04T08:56:42;22.98;;;9.80;;
3653;SDS011;70277;54.302;10.064;2023-12-04T08:59:10;21.08;;;8.48;;
3653;SDS011;70277;54.302;10.064;2023-12-04T09:01:39;23.98;;;9.40;;
3653;SDS011;70277;54.302;10.064;2023-12-04T09:04:07;36.83;;;12.05;;
3653;SDS011;70277;54.302;10.064;2023-12-04T09:06:34;25.58;;;8.75;;
3653;SDS011;70277;54.302;10.064;2023-12-04T09:09:04;24.03;;;9.57;;
3653;SDS011;70277;54.302;10.064;2023-12-04T09:11:40;26.20;;;10.80;;
3653;SDS011;70277;54.302;10.064;2023-12-04T09:14:10;29.02;;;10.65;;
3653;SDS011;70277;54.302;10.064;2023-12-04T09:16:37;23.58;;;9.90;;
3653;SDS011;70277;54.302;10.064;2023-12-04T09:19:04;22.98;;;10.02;;
3653;SDS011;70277;54.302;10.064;2023-12-04T09:21:31;28.25;;;10.68;;
3653;SDS011;70277;54.302;10.064;2023-12-04T09:23:57;25.63;;;10.77;;
3653;SDS011;70277;54.302;10.064;2023-12-04T09:26:24;25.05;;;10.48;;
3653;SDS011;70277;54.302;10.064;2023-12-04T09:28:50;24.45;;;10.18;;
3653;SDS011;70277;54.302;10.064;2023-12-04T09:31:18;23.05;;;9.70;;
3653;SDS011;70277;54.302;10.064;2023-12-04T09:33:45;27.35;;;10.65;;
3653;SDS011;70277;54.302;10.064;2023-12-04T09:36:13;23.05;;;10.10;;
3653;SDS011;70277;54.302;10.064;2023-12-04T09:38:40;23.98;;;10.60;;
3653;SDS011;70277;54.302;10.064;2023-12-04T09:41:06;24.63;;;11.02;;
3653;SDS011;70277;54.302;10.064;2023-12-04T09:43:36;26.55;;;9.68;;
3653;SDS011;70277;54.302;10.064;2023-12-04T09:46:04;24.23;;;9.63;;
3653;SDS011;70277;54.302;10.064;2023-12-04T09:48:30;28.10;;;11.40;;
3653;SDS011;70277;54.302;10.064;2023-12-04T09:50:58;22.40;;;10.45;;
3653;SDS011;70277;54.302;10.064;2023-12-04T09:53:26;25.52;;;11.35;;
3653;SDS011;70277;54.302;10.064;2023-12-04T09:55:54;20.52;;;9.90;;
3653;SDS011;70277;54.302;10.064;2023-12-04T09:58:23;24.77;;;9.38;;
3653;SDS011;70277;54.302;10.064;2023-12-04T10:00:55;21.10;;;9.90;;
3653;SDS011;70277;54.302;10.064;2023-12-04T10:03:22;22.60;;;9.80;;
3653;SDS011;70277;54.302;10.064;2023-12-04T10:05:50;21.98;;;10.43;;
3653;SDS011;70277;54.302;10.064;2023-12-04T10:08:17;23.65;;;10.45;;
3653;SDS011;70277;54.302;10.064;2023-12-04T10:10:43;29.25;;;10.80;;
3653;SDS011;70277;54.302;10.064;2023-12-04T10:13:10;21.85;;;9.68;;
3653;SDS011;70277;54.302;10.064;2023-12-04T10:15:45;25.70;;;10.52;;
3653;SDS011;70277;54.302;10.064;2023-12-04T10:18:24;25.35;;;10.80;;
3653;SDS011;70277;54.302;10.064;2023-12-04T10:20:53;27.88;;;11.13;;
3653;SDS011;70277;54.302;10.064;2023-12-04T10:23:35;23.60;;;10.18;;
3653;SDS011;70277;54.302;10.064;2023-12-04T10:26:06;23.48;;;10.32;;
3653;SDS011;70277;54.302;10.064;2023-12-04T10:28:34;30.55;;;9.82;;
3653;SDS011;70277;54.302;10.064;2023-12-04T10:31:01;25.58;;;10.30;;
3653;SDS011;70277;54.302;10.064;2023-12-04T10:33:29;24.30;;;10.13;;
3653;SDS011;70277;54.302;10.064;2023-12-04T10:35:57;23.30;;;9.65;;
3653;SDS011;70277;54.302;10.064;2023-12-04T10:38:23;23.85;;;10.40;;
3653;SDS011;70277;54.302;10.064;2023-12-04T10:40:51;25.33;;;10.23;;
3653;SDS011;70277;54.302;10.064;2023-12-04T10:43:18;19.15;;;9.90;;
3653;SDS011;70277;54.302;10.064;2023-12-04T10:45:47;21.67;;;9.70;;
3653;SDS011;70277;54.302;10.064;2023-12-04T10:48:15;24.13;;;10.52;;
3653;SDS011;70277;54.302;10.064;2023-12-04T10:50:43;24.15;;;10.65;;
3653;SDS011;70277;54.302;10.064;2023-12-04T10:53:12;25.38;;;10.75;;
3653;SDS011;70277;54.302;10.064;2023-12-04T10:55:40;19.75;;;8.32;;
3653;SDS011;70277;54.302;10.064;2023-12-04T10:58:08;23.50;;;10.25;;
3653;SDS011;70277;54.302;10.064;2023-12-04T11:00:38;23.95;;;10.13;;
3653;SDS011;70277;54.302;10.064;2023-12-04T11:03:08;21.10;;;10.02;;
3653;SDS011;70277;54.302;10.064;2023-12-04T11:05:37;23.23;;;9.98;;
3653;SDS011;70277;54.302;10.064;2023-12-04T11:08:09;23.75;;;10.48;;
3653;SDS011;70277;54.302;10.064;2023-12-04T11:13:30;20.92;;;11.02;;
3653;SDS011;70277;54.302;10.064;2023-12-04T11:16:02;22.10;;;9.73;;
3653;SDS011;70277;54.302;10.064;2023-12-04T11:18:39;25.15;;;9.80;;
3653;SDS011;70277;54.302;10.064;2023-12-04T11:21:10;22.65;;;9.77;;
3653;SDS011;70277;54.302;10.064;2023-12-04T11:23:37;22.75;;;10.98;;
3653;SDS011;70277;54.302;10.064;2023-12-04T11:26:07;21.70;;;10.57;;
3653;SDS011;70277;54.302;10.064;2023-12-04T11:28:35;23.70;;;10.48;;
3653;SDS011;70277;54.302;10.064;2023-12-04T11:31:04;28.10;;;10.57;;
3653;SDS011;70277;54.302;10.064;2023-12-04T11:33:36;24.17;;;9.40;;
3653;SDS011;70277;54.302;10.064;2023-12-04T11:36:12;22.48;;;9.82;;
3653;SDS011;70277;54.302;10.064;2023-12-04T11:38:44;27.67;;;11.10;;
3653;SDS011;70277;54.302;10.064;2023-12-04T11:43:48;26.00;;;11.27;;
3653;SDS011;70277;54.302;10.064;2023-12-04T11:46:22;23.40;;;10.15;;
3653;SDS011;70277;54.302;10.064;2023-12-04T11:48:57;21.08;;;10.30;;
3653;SDS011;70277;54.302;10.064;2023-12-04T11:51:52;20.85;;;9.77;;
3653;SDS011;70277;54.302;10.064;2023-12-04T11:54:19;21.25;;;10.32;;
3653;SDS011;70277;54.302;10.064;2023-12-04T11:57:19;24.17;;;10.38;;
3653;SDS011;70277;54.302;10.064;2023-12-04T11:59:52;28.85;;;10.68;;
3653;SDS011;70277;54.302;10.064;2023-12-04T12:02:18;21.98;;;10.05;;
3653;SDS011;70277;54.302;10.064;2023-12-04T12:04:46;22.98;;;10.27;;
3653;SDS011;70277;54.302;10.064;2023-12-04T12:07:13;22.42;;;10.55;;
3653;SDS011;70277;54.302;10.064;2023-12-04T12:09:41;24.10;;;10.80;;
3653;SDS011;70277;54.302;10.064;2023-12-04T12:12:07;22.73;;;10.35;;
3653;SDS011;70277;54.302;10.064;2023-12-04T12:14:35;24.73;;;10.05;;
3653;SDS011;70277;54.302;10.064;2023-12-04T12:17:01;20.75;;;10.07;;
3653;SDS011;70277;54.302;10.064;2023-12-04T12:19:28;22.50;;;10.68;;
3653;SDS011;70277;54.302;10.064;2023-12-04T12:21:55;26.30;;;11.30;;
3653;SDS011;70277;54.302;10.064;2023-12-04T12:24:23;25.05;;;10.90;;
3653;SDS011;70277;54.302;10.064;2023-12-04T12:26:50;20.45;;;10.40;;
3653;SDS011;70277;54.302;10.064;2023-12-04T12:29:17;21.92;;;10.10;;
3653;SDS011;70277;54.302;10.064;2023-12-04T12:31:43;26.58;;;10.98;;
3653;SDS011;70277;54.302;10.064;2023-12-04T12:34:12;22.95;;;10.88;;
3653;SDS011;70277;54.302;10.064;2023-12-04T12:36:39;24.33;;;11.25;;
3653;SDS011;70277;54.302;10.064;2023-12-04T12:39:06;26.10;;;11.48;;
3653;SDS011;70277;54.302;10.064;2023-12-04T12:41:35;25.48;;;11.55;;
3653;SDS011;70277;54.302;10.064;2023-12-04T12:44:01;28.50;;;11.68;;
3653;SDS011;70277;54.302;10.064;2023-12-04T12:46:29;27.27;;;11.77;;
3653;SDS011;70277;54.302;10.064;2023-12-04T12:48:56;25.75;;;11.45;;
3653;SDS011;70277;54.302;10.064;2023-12-04T12:51:23;24.40;;;11.38;;
3653;SDS011;70277;54.302;10.064;2023-12-04T12:53:50;26.40;;;11.10;;
3653;SDS011;70277;54.302;10.064;2023-12-04T12:56:18;26.42;;;11.60;;
3653;SDS011;70277;54.302;10.064;2023-12-04T12:58:45;26.42;;;11.10;;
3653;SDS011;70277;54.302;10.064;2023-12-04T13:01:11;29.90;;;11.65;;
3653;SDS011;70277;54.302;10.064;2023-12-04T13:03:39;33.50;;;10.98;;
3653;SDS011;70277;54.302;10.064;2023-12-04T13:06:06;27.10;;;11.02;;
3653;SDS011;70277;54.302;10.064;2023-12-04T13:08:33;27.88;;;10.93;;
3653;SDS011;70277;54.302;10.064;2023-12-04T13:10:59;22.30;;;10.45;;
3653;SDS011;70277;54.302;10.064;2023-12-04T13:13:26;26.30;;;11.10;;
3653;SDS011;70277;54.302;10.064;2023-12-04T13:15:53;23.88;;;11.25;;
3653;SDS011;70277;54.302;10.064;2023-12-04T13:18:20;25.55;;;11.40;;
3653;SDS011;70277;54.302;10.064;2023-12-04T13:20:47;28.05;;;10.85;;
3653;SDS011;70277;54.302;10.064;2023-12-04T13:23:13;23.08;;;10.40;;
3653;SDS011;70277;54.302;10.064;2023-12-04T13:25:40;26.77;;;10.80;;
3653;SDS011;70277;54.302;10.064;2023-12-04T13:28:07;24.33;;;11.10;;
3653;SDS011;70277;54.302;10.064;2023-12-04T13:30:41;24.58;;;10.50;;
3653;SDS011;70277;54.302;10.064;2023-12-04T13:33:08;25.67;;;10.82;;
3653;SDS011;70277;54.302;10.064;2023-12-04T13:35:35;22.40;;;11.40;;
3653;SDS011;70277;54.302;10.064;2023-12-04T13:38:02;28.67;;;11.88;;
3653;SDS011;70277;54.302;10.064;2023-12-04T13:40:28;21.85;;;10.80;;
3653;SDS011;70277;54.302;10.064;2023-12-04T13:42:58;25.65;;;10.52;;
3653;SDS011;70277;54.302;10.064;2023-12-04T13:45:43;25.60;;;10.75;;
3653;SDS011;70277;54.302;10.064;2023-12-04T13:48:10;22.15;;;10.85;;
3653;SDS011;70277;54.302;10.064;2023-12-04T13:50:39;25.02;;;11.00;;
3653;SDS011;70277;54.302;10.064;2023-12-04T13:53:06;23.77;;;10.68;;
3653;SDS011;70277;54.302;10.064;2023-12-04T13:55:34;24.77;;;11.40;;
3653;SDS011;70277;54.302;10.064;2023-12-04T13:58:13;29.85;;;10.65;;
3653;SDS011;70277;54.302;10.064;2023-12-04T14:00:58;26.13;;;12.55;;
3653;SDS011;70277;54.302;10.064;2023-12-04T14:03:26;22.33;;;10.82;;
3653;SDS011;70277;54.302;10.064;2023-12-04T14:05:55;27.08;;;12.13;;
3653;SDS011;70277;54.302;10.064;2023-12-04T14:08:22;22.60;;;10.35;;
3653;SDS011;70277;54.302;10.064;2023-12-04T14:10:49;26.40;;;11.02;;
3653;SDS011;70277;54.302;10.064;2023-12-04T14:13:17;23.25;;;11.07;;
3653;SDS011;70277;54.302;10.064;2023-12-04T14:15:43;27.73;;;12.00;;
3653;SDS011;70277;54.302;10.064;2023-12-04T14:18:10;24.38;;;10.98;;
3653;SDS011;70277;54.302;10.064;2023-12-04T14:20:36;22.35;;;11.00;;
3653;SDS011;70277;54.302;10.064;2023-12-04T14:23:03;27.02;;;10.70;;
3653;SDS011;70277;54.302;10.064;2023-12-04T14:25:31;22.65;;;10.38;;
3653;SDS011;70277;54.302;10.064;2023-12-04T14:27:57;24.08;;;10.70;;
3653;SDS011;70277;54.302;10.064;2023-12-04T14:30:24;23.08;;;11.05;;
3653;SDS011;70277;54.302;10.064;2023-12-04T14:32:53;22.50;;;10.20;;